createdAt,value
2022-12-03T00:01:37.589Z,66.03
2022-12-03T00:04:06.007Z,67.29
2022-12-03T00:06:34.913Z,68.08
2022-12-03T00:09:04.568Z,67.97
2022-12-03T00:11:32.856Z,68.36
2022-12-03T00:14:00.992Z,67.95
2022-12-03T00:16:29.473Z,68.58
2022-12-03T00:18:58.128Z,68.90
2022-12-03T00:21:26.366Z,68.91
2022-12-03T00:23:54.636Z,69.23
2022-12-03T00:26:22.921Z,69.43
2022-12-03T00:28:52.466Z,69.66
2022-12-03T00:31:24.844Z,70.11
2022-12-03T00:33:53.662Z,70.18
2022-12-03T00:36:22.129Z,70.12
2022-12-03T00:38:50.721Z,70.07
2022-12-03T00:41:18.956Z,69.54
2022-12-03T00:43:47.254Z,69.70
2022-12-03T00:46:20.897Z,69.82
2022-12-03T00:48:49.621Z,69.99
2022-12-03T00:51:18.075Z,70.40
2022-12-03T00:53:46.292Z,70.29
2022-12-03T00:56:14.558Z,70.36
2022-12-03T00:58:42.834Z,70.27
2022-12-03T01:01:11.210Z,70.23
2022-12-03T01:03:39.394Z,70.30
2022-12-03T01:06:07.556Z,70.32
2022-12-03T01:08:35.712Z,70.13
2022-12-03T01:11:04.427Z,70.12
2022-12-03T01:13:32.589Z,70.42
2022-12-03T01:16:00.912Z,70.51
2022-12-03T01:18:29.356Z,70.36
2022-12-03T01:20:57.536Z,70.43
2022-12-03T01:23:25.715Z,70.48
2022-12-03T01:25:53.911Z,70.51
2022-12-03T01:28:22.051Z,70.49
2022-12-03T01:31:08.643Z,70.46
2022-12-03T01:33:36.824Z,70.51
2022-12-03T01:36:05.420Z,70.45
2022-12-03T01:38:33.700Z,70.43
2022-12-03T01:41:02.634Z,70.56
2022-12-03T01:43:32.989Z,70.60
2022-12-03T01:46:01.908Z,70.76
2022-12-03T01:48:34.929Z,70.88
2022-12-03T01:51:03.569Z,70.99
2022-12-03T01:53:31.749Z,71.20
2022-12-03T01:55:59.932Z,71.21
2022-12-03T01:58:29.945Z,71.45
2022-12-03T02:01:10.504Z,71.22
2022-12-03T02:03:39.136Z,72.56
2022-12-03T02:06:21.916Z,71.87
2022-12-03T02:08:51.409Z,69.94
2022-12-03T02:11:25.692Z,69.54
2022-12-03T02:13:59.849Z,70.17
2022-12-03T02:16:29.206Z,69.98
2022-12-03T02:18:58.539Z,70.29
2022-12-03T02:21:45.612Z,70.70
2022-12-03T02:24:20.180Z,70.88
2022-12-03T02:26:48.663Z,71.43
2022-12-03T02:29:17.045Z,71.16
2022-12-03T02:31:45.503Z,71.10
2022-12-03T02:34:34.543Z,71.05
2022-12-03T02:37:04.188Z,71.51
2022-12-03T02:39:35.650Z,71.70
2022-12-03T02:42:24.613Z,71.86
2022-12-03T02:44:53.758Z,71.37
2022-12-03T02:47:23.846Z,70.76
2022-12-03T02:49:52.920Z,69.93
2022-12-03T02:52:21.180Z,71.26
2022-12-03T02:54:49.889Z,72.26
2022-12-03T02:57:18.202Z,71.03
2022-12-03T02:59:46.846Z,69.67
2022-12-03T03:02:15.488Z,68.43
2022-12-03T03:04:44.827Z,67.58
2022-12-03T03:07:14.324Z,67.27
2022-12-03T03:09:43.226Z,66.58
2022-12-03T03:12:12.100Z,66.94
2022-12-03T03:14:40.387Z,67.06
2022-12-03T03:17:08.677Z,67.20
2022-12-03T03:19:36.955Z,67.74
2022-12-03T03:22:05.648Z,67.96
2022-12-03T03:24:33.902Z,68.86
2022-12-03T03:27:02.180Z,69.51
2022-12-03T03:29:32.253Z,69.83
2022-12-03T03:32:02.165Z,69.99
2022-12-03T03:34:33.023Z,70.51
2022-12-03T03:37:01.337Z,70.63
2022-12-03T03:39:29.615Z,70.79
2022-12-03T03:41:57.895Z,71.19
2022-12-03T03:44:26.156Z,71.53
2022-12-03T03:46:55.373Z,71.88
2022-12-03T03:49:23.748Z,71.48
2022-12-03T03:51:52.220Z,71.68
2022-12-03T03:54:20.800Z,71.84
2022-12-03T03:56:49.394Z,72.30
2022-12-03T03:59:18.027Z,71.88
2022-12-03T04:01:46.581Z,71.75
2022-12-03T04:04:24.802Z,72.22
2022-12-03T04:06:53.376Z,72.52
2022-12-03T04:09:21.622Z,72.43
2022-12-03T04:12:08.560Z,72.39
2022-12-03T04:14:36.705Z,72.21
2022-12-03T04:17:05.013Z,72.53
2022-12-03T04:19:33.079Z,72.95
2022-12-03T04:22:19.870Z,72.74
2022-12-03T04:24:48.479Z,72.45
2022-12-03T04:27:35.474Z,72.36
2022-12-03T04:30:04.014Z,72.32
2022-12-03T04:32:51.068Z,72.44
2022-12-03T04:35:38.540Z,72.46
2022-12-03T04:38:06.983Z,72.79
2022-12-03T04:41:10.579Z,72.88
2022-12-03T04:43:58.739Z,72.70
2022-12-03T04:46:26.903Z,72.73
2022-12-03T04:48:55.179Z,73.37
2022-12-03T04:51:23.369Z,72.85
2022-12-03T04:53:51.511Z,72.32
2022-12-03T04:56:19.694Z,72.36
2022-12-03T04:58:47.975Z,72.49
2022-12-03T05:01:17.436Z,72.94
2022-12-03T05:03:45.958Z,73.04
2022-12-03T05:06:14.139Z,73.00
2022-12-03T05:08:42.396Z,72.95
2022-12-03T05:11:10.895Z,73.00
2022-12-03T05:13:39.059Z,73.41
2022-12-03T05:16:07.839Z,72.80
2022-12-03T05:18:35.915Z,73.02
2022-12-03T05:21:04.825Z,72.96
2022-12-03T05:23:33.716Z,73.34
2022-12-03T05:26:02.192Z,72.79
2022-12-03T05:28:30.557Z,73.27
2022-12-03T05:30:58.788Z,73.27
2022-12-03T05:33:27.012Z,72.98
2022-12-03T05:35:55.402Z,73.41
2022-12-03T05:38:23.771Z,74.48
2022-12-03T05:40:51.936Z,73.01
2022-12-03T05:43:20.126Z,71.73
2022-12-03T05:45:48.390Z,70.46
2022-12-03T05:48:17.387Z,70.58
2022-12-03T05:50:47.107Z,71.86
2022-12-03T05:53:19.786Z,73.20
2022-12-03T05:55:47.961Z,74.73
2022-12-03T05:58:16.340Z,75.86
2022-12-03T06:00:45.733Z,73.83
2022-12-03T06:03:14.053Z,69.36
2022-12-03T06:05:42.297Z,63.40
2022-12-03T06:08:10.614Z,58.04
2022-12-03T06:10:39.045Z,55.77
2022-12-03T06:13:07.226Z,57.20
2022-12-03T06:15:40.392Z,58.39
2022-12-03T06:18:12.179Z,59.00
2022-12-03T06:20:40.545Z,61.17
2022-12-03T06:23:08.719Z,63.67
2022-12-03T06:25:37.207Z,67.30
2022-12-03T06:28:06.218Z,66.80
2022-12-03T06:30:36.036Z,65.66
2022-12-03T06:33:04.450Z,64.39
2022-12-03T06:35:32.772Z,63.53
2022-12-03T06:38:01.248Z,57.58
2022-12-03T06:40:29.763Z,55.20
2022-12-03T06:42:59.099Z,55.95
2022-12-03T06:45:28.130Z,56.42
2022-12-03T06:47:56.301Z,57.96
2022-12-03T06:50:24.574Z,59.01
2022-12-03T06:52:52.962Z,60.74
2022-12-03T06:55:21.131Z,62.13
2022-12-03T06:57:49.741Z,66.35
2022-12-03T07:00:18.818Z,68.60
2022-12-03T07:02:47.359Z,69.32
2022-12-03T07:05:16.180Z,65.09
2022-12-03T07:07:47.423Z,62.07
2022-12-03T07:10:16.010Z,61.58
2022-12-03T07:12:44.615Z,58.13
2022-12-03T07:15:13.387Z,56.42
2022-12-03T07:17:41.749Z,57.77
2022-12-03T07:20:10.962Z,58.38
2022-12-03T07:22:39.349Z,60.01
2022-12-03T07:25:08.542Z,62.01
2022-12-03T07:27:36.710Z,63.79
2022-12-03T07:30:08.422Z,64.29
2022-12-03T07:32:36.842Z,64.66
2022-12-03T07:35:07.781Z,65.14
2022-12-03T07:37:36.285Z,65.36
2022-12-03T07:40:06.353Z,67.46
2022-12-03T07:42:34.763Z,72.49
2022-12-03T07:45:03.587Z,67.76
2022-12-03T07:47:32.340Z,64.08
2022-12-03T07:50:00.725Z,62.19
2022-12-03T07:52:29.205Z,59.78
2022-12-03T07:54:58.207Z,58.60
2022-12-03T07:57:28.006Z,57.26
2022-12-03T07:59:56.786Z,57.96
2022-12-03T08:02:25.222Z,59.36
2022-12-03T08:04:54.991Z,60.71
2022-12-03T08:07:24.409Z,62.88
2022-12-03T08:09:53.483Z,65.03
2022-12-03T08:12:45.736Z,65.50
2022-12-03T08:15:20.954Z,65.66
2022-12-03T08:17:56.471Z,63.28
2022-12-03T08:20:28.576Z,64.12
2022-12-03T08:22:57.672Z,64.61
2022-12-03T08:25:29.859Z,62.43
2022-12-03T08:28:17.140Z,58.89
2022-12-03T08:30:59.993Z,56.09
2022-12-03T08:33:35.926Z,56.64
2022-12-03T08:36:25.694Z,59.60
2022-12-03T08:39:01.083Z,61.29
2022-12-03T08:41:49.075Z,65.66
2022-12-03T08:44:28.017Z,65.93
2022-12-03T08:47:13.271Z,63.47
2022-12-03T08:49:45.030Z,62.18
2022-12-03T08:52:19.703Z,58.60
2022-12-03T08:54:53.557Z,56.25
2022-12-03T08:57:27.983Z,56.10
2022-12-03T09:00:15.641Z,58.24
2022-12-03T09:02:52.438Z,59.32
2022-12-03T09:05:24.241Z,63.17
2022-12-03T09:07:52.771Z,65.64
2022-12-03T09:10:21.923Z,65.75
2022-12-03T09:12:50.527Z,65.81
2022-12-03T09:15:18.904Z,63.73
2022-12-03T09:17:47.375Z,62.08
2022-12-03T09:20:16.166Z,59.00
2022-12-03T09:22:44.749Z,57.42
2022-12-03T09:25:13.233Z,59.62
2022-12-03T09:27:41.715Z,59.18
2022-12-03T09:30:10.979Z,62.44
2022-12-03T09:32:39.988Z,63.75
2022-12-03T09:35:10.174Z,64.26
2022-12-03T09:37:38.962Z,64.63
2022-12-03T09:40:10.136Z,64.26
2022-12-03T09:42:40.152Z,63.75
2022-12-03T09:45:12.613Z,63.72
2022-12-03T09:47:46.824Z,64.43
2022-12-03T09:50:20.896Z,65.95
2022-12-03T09:52:52.525Z,67.09
2022-12-03T09:55:24.859Z,62.11
2022-12-03T09:57:55.844Z,59.35
2022-12-03T10:00:27.495Z,55.90
2022-12-03T10:03:04.491Z,56.06
2022-12-03T10:05:35.131Z,56.90
2022-12-03T10:08:06.908Z,58.50
2022-12-03T10:10:37.438Z,63.13
2022-12-03T10:13:07.923Z,63.35
2022-12-03T10:15:38.052Z,61.58
2022-12-03T10:18:22.171Z,62.08
2022-12-03T10:20:53.391Z,65.97
2022-12-03T10:23:31.479Z,63.92
2022-12-03T10:26:05.973Z,57.68
2022-12-03T10:28:41.059Z,55.43
2022-12-03T10:31:12.644Z,55.42
2022-12-03T10:33:47.654Z,56.02
2022-12-03T10:36:18.695Z,59.91
2022-12-03T10:39:05.362Z,62.38
2022-12-03T10:41:34.055Z,67.96
2022-12-03T10:44:32.137Z,66.22
2022-12-03T10:47:12.590Z,61.94
2022-12-03T10:49:42.102Z,54.93
2022-12-03T10:52:25.953Z,53.77
2022-12-03T10:54:56.537Z,53.85
2022-12-03T10:57:27.257Z,56.30
2022-12-03T10:59:56.023Z,57.39
2022-12-03T11:02:26.134Z,60.11
2022-12-03T11:04:55.718Z,63.32
2022-12-03T11:07:26.529Z,63.18
2022-12-03T11:09:55.754Z,63.69
2022-12-03T11:12:28.119Z,64.05
2022-12-03T11:14:57.938Z,64.41
2022-12-03T11:17:52.329Z,63.83
2022-12-03T11:20:23.015Z,62.50
2022-12-03T11:22:56.863Z,62.72
2022-12-03T11:25:25.354Z,62.88
2022-12-03T11:28:12.895Z,62.81
2022-12-03T11:30:54.919Z,62.44
2022-12-03T11:33:29.812Z,62.66
2022-12-03T11:36:05.311Z,62.22
2022-12-03T11:38:52.393Z,63.12
2022-12-03T11:41:33.955Z,62.50
2022-12-03T11:44:06.221Z,63.27
2022-12-03T11:46:37.747Z,63.79
2022-12-03T11:49:35.043Z,63.82
2022-12-03T11:52:20.916Z,63.53
2022-12-03T11:54:56.003Z,63.01
2022-12-03T11:57:39.219Z,62.18
2022-12-03T12:00:23.303Z,61.98
2022-12-03T12:02:55.224Z,61.48
2022-12-03T12:05:24.204Z,61.61
2022-12-03T12:07:53.712Z,61.55
2022-12-03T12:10:47.661Z,61.18
2022-12-03T12:13:25.341Z,61.30
2022-12-03T12:15:54.453Z,60.65
2022-12-03T12:18:46.132Z,60.67
2022-12-03T12:21:43.042Z,60.30
2022-12-03T12:24:41.386Z,60.29
2022-12-03T12:27:17.495Z,60.25
2022-12-03T12:29:55.872Z,60.03
2022-12-03T12:32:39.452Z,60.48
2022-12-03T12:35:24.507Z,61.23
2022-12-03T12:37:59.807Z,60.46
2022-12-03T12:40:34.140Z,57.98
2022-12-03T12:43:20.340Z,56.39
2022-12-03T12:45:56.704Z,57.19
2022-12-03T12:48:35.510Z,58.00
2022-12-03T12:51:12.380Z,59.10
2022-12-03T12:53:44.176Z,59.57
2022-12-03T12:56:25.130Z,62.59
2022-12-03T12:58:54.538Z,64.53
2022-12-03T13:01:30.673Z,64.59
2022-12-03T13:04:00.288Z,65.62
2022-12-03T13:06:32.503Z,67.00
2022-12-03T13:09:04.325Z,66.66
2022-12-03T13:11:47.415Z,65.59
2022-12-03T13:14:22.704Z,65.47
2022-12-03T13:16:53.665Z,63.27
2022-12-03T13:19:27.807Z,60.60
2022-12-03T13:22:00.391Z,58.18
2022-12-03T13:24:41.500Z,55.55
2022-12-03T13:27:23.390Z,55.26
2022-12-03T13:30:00.644Z,57.07
2022-12-03T13:32:35.157Z,58.51
2022-12-03T13:35:10.367Z,60.01
2022-12-03T13:37:39.546Z,62.88
2022-12-03T13:40:24.104Z,67.34
2022-12-03T13:42:53.555Z,64.41
2022-12-03T13:45:24.847Z,63.63
2022-12-03T13:47:56.527Z,62.03
2022-12-03T13:50:40.046Z,60.64
2022-12-03T13:53:12.151Z,56.81
2022-12-03T13:55:45.610Z,55.08
2022-12-03T13:58:14.090Z,55.70
2022-12-03T14:00:42.755Z,57.63
2022-12-03T14:03:11.551Z,58.44
2022-12-03T14:05:40.348Z,59.71
2022-12-03T14:08:09.179Z,63.25
2022-12-03T14:10:37.723Z,66.07
2022-12-03T14:13:06.278Z,64.61
2022-12-03T14:15:35.843Z,62.58
2022-12-03T14:18:05.025Z,61.23
2022-12-03T14:20:35.558Z,61.89
2022-12-03T14:23:05.177Z,60.67
2022-12-03T14:25:34.375Z,58.55
2022-12-03T14:28:05.902Z,56.90
2022-12-03T14:30:35.353Z,56.72
2022-12-03T14:33:04.186Z,57.39
2022-12-03T14:35:32.577Z,58.40
2022-12-03T14:38:01.358Z,59.78
2022-12-03T14:40:30.988Z,61.45
2022-12-03T14:43:00.269Z,62.99
2022-12-03T14:45:30.416Z,63.26
2022-12-03T14:47:58.870Z,64.23
2022-12-03T14:50:27.254Z,65.42
2022-12-03T14:52:55.870Z,65.28
2022-12-03T14:55:24.413Z,65.33
2022-12-03T14:57:53.002Z,64.84
2022-12-03T15:00:23.427Z,64.32
2022-12-03T15:02:51.840Z,64.05
2022-12-03T15:05:27.880Z,63.57
2022-12-03T15:07:57.422Z,62.51
2022-12-03T15:10:25.966Z,62.56
2022-12-03T15:12:55.660Z,63.13
2022-12-03T15:15:24.002Z,62.69
2022-12-03T15:17:53.174Z,61.91
2022-12-03T15:20:21.738Z,61.48
2022-12-03T15:22:50.304Z,61.96
2022-12-03T15:25:25.700Z,61.83
2022-12-03T15:27:54.226Z,61.78
2022-12-03T15:30:22.599Z,61.35
2022-12-03T15:32:51.181Z,60.99
2022-12-03T15:35:19.538Z,61.03
2022-12-03T15:37:47.846Z,60.86
2022-12-03T15:40:16.333Z,61.02
2022-12-03T15:42:44.813Z,60.23
2022-12-03T15:45:15.331Z,60.02
2022-12-03T15:47:44.834Z,60.61
2022-12-03T15:50:14.770Z,60.86
2022-12-03T15:52:43.455Z,60.26
2022-12-03T15:55:12.129Z,61.36
2022-12-03T15:57:40.716Z,61.33
2022-12-03T16:00:11.535Z,61.19
2022-12-03T16:02:50.752Z,61.52
2022-12-03T16:05:22.337Z,62.21
2022-12-03T16:07:54.227Z,63.16
2022-12-03T16:10:22.770Z,63.33
2022-12-03T16:12:51.937Z,64.77
2022-12-03T16:15:26.477Z,65.28
2022-12-03T16:17:55.696Z,66.23
2022-12-03T16:20:24.204Z,66.71
2022-12-03T16:22:52.652Z,67.72
2022-12-03T16:25:21.039Z,68.09
2022-12-03T16:27:49.624Z,67.82
2022-12-03T16:30:18.317Z,68.61
2022-12-03T16:32:46.898Z,69.42
2022-12-03T16:35:15.309Z,69.02
2022-12-03T16:37:43.851Z,68.70
2022-12-03T16:40:12.741Z,69.17
2022-12-03T16:42:41.253Z,69.78
2022-12-03T16:45:11.055Z,69.43
2022-12-03T16:47:39.938Z,69.89
2022-12-03T16:50:14.584Z,70.05
2022-12-03T16:52:48.484Z,69.91
2022-12-03T16:55:17.592Z,70.00
2022-12-03T16:57:46.449Z,70.07
2022-12-03T17:00:16.487Z,69.97
2022-12-03T17:02:45.586Z,69.99
2022-12-03T17:05:14.859Z,70.08
2022-12-03T17:07:44.278Z,70.29
2022-12-03T17:10:13.514Z,70.36
2022-12-03T17:13:08.255Z,70.61
2022-12-03T17:15:31.801Z,71.03
2022-12-03T17:18:01.536Z,70.88
2022-12-03T17:20:32.300Z,70.99
2022-12-03T17:23:02.480Z,71.25
2022-12-03T17:25:31.703Z,71.25
2022-12-03T17:28:01.380Z,71.28
2022-12-03T17:30:30.545Z,71.26
2022-12-03T17:32:59.527Z,71.25
2022-12-03T17:35:29.332Z,71.40
2022-12-03T17:37:59.332Z,71.41
2022-12-03T17:40:29.243Z,71.62
2022-12-03T17:42:58.649Z,71.70
2022-12-03T17:45:28.248Z,71.76
2022-12-03T17:47:58.073Z,71.62
2022-12-03T17:50:26.859Z,71.82
2022-12-03T17:52:55.746Z,71.94
2022-12-03T17:55:33.871Z,71.99
2022-12-03T17:58:06.729Z,71.97
2022-12-03T18:00:35.210Z,72.10
2022-12-03T18:03:03.801Z,72.19
2022-12-03T18:05:32.283Z,71.99
2022-12-03T18:08:00.907Z,71.91
2022-12-03T18:10:30.099Z,72.05
2022-12-03T18:13:01.971Z,72.22
2022-12-03T18:15:32.874Z,72.36
2022-12-03T18:18:02.573Z,72.14
2022-12-03T18:20:33.549Z,72.13
2022-12-03T18:23:02.838Z,72.14
2022-12-03T18:25:33.005Z,72.19
2022-12-03T18:28:02.551Z,72.25
2022-12-03T18:30:31.520Z,72.13
2022-12-03T18:33:01.914Z,72.25
2022-12-03T18:35:34.371Z,72.38
2022-12-03T18:38:03.397Z,72.28
2022-12-03T18:40:32.413Z,72.48
2022-12-03T18:43:01.527Z,72.40
2022-12-03T18:45:30.848Z,72.60
2022-12-03T18:48:00.659Z,72.57
2022-12-03T18:50:30.726Z,72.56
2022-12-03T18:53:00.868Z,72.42
2022-12-03T18:55:35.246Z,72.66
2022-12-03T18:58:04.503Z,72.65
2022-12-03T19:00:36.128Z,72.58
2022-12-03T19:03:06.235Z,72.53
2022-12-03T19:05:37.703Z,72.53
2022-12-03T19:08:15.059Z,72.81
2022-12-03T19:10:45.618Z,72.81
2022-12-03T19:13:16.602Z,72.97
2022-12-03T19:15:50.245Z,72.97
2022-12-03T19:18:21.051Z,72.93
2022-12-03T19:20:51.647Z,72.95
2022-12-03T19:23:20.946Z,73.11
2022-12-03T19:26:01.840Z,73.18
2022-12-03T19:28:31.429Z,73.11
2022-12-03T19:31:02.421Z,73.19
2022-12-03T19:33:32.449Z,73.15
2022-12-03T19:36:04.249Z,73.28
2022-12-03T19:38:34.565Z,73.36
2022-12-03T19:41:06.890Z,73.12
2022-12-03T19:43:37.653Z,73.11
2022-12-03T19:46:11.134Z,73.18
2022-12-03T19:48:40.981Z,73.35
2022-12-03T19:51:33.068Z,73.37
2022-12-03T19:54:01.555Z,73.25
2022-12-03T19:56:33.507Z,73.33
2022-12-03T19:59:03.596Z,73.40
2022-12-03T20:01:36.346Z,73.49
2022-12-03T20:04:09.211Z,73.45
2022-12-03T20:06:40.576Z,73.60
2022-12-03T20:09:17.871Z,73.66
2022-12-03T20:11:50.150Z,73.60
2022-12-03T20:14:20.585Z,73.64
2022-12-03T20:16:49.827Z,73.69
2022-12-03T20:19:18.866Z,73.75
2022-12-03T20:21:47.657Z,73.88
2022-12-03T20:24:18.452Z,73.80
2022-12-03T20:26:48.616Z,73.94
2022-12-03T20:29:18.615Z,73.97
2022-12-03T20:31:48.535Z,73.85
2022-12-03T20:34:21.082Z,73.95
2022-12-03T20:36:51.997Z,73.96
2022-12-03T20:39:20.648Z,73.99
2022-12-03T20:41:49.359Z,74.04
2022-12-03T20:44:18.366Z,74.04
2022-12-03T20:46:48.010Z,73.95
2022-12-03T20:49:17.284Z,73.86
2022-12-03T20:51:51.054Z,73.77
2022-12-03T20:54:20.210Z,73.79
2022-12-03T20:56:49.751Z,73.74
2022-12-03T20:59:19.745Z,73.72
2022-12-03T21:01:49.373Z,73.73
2022-12-03T21:04:18.826Z,73.70
2022-12-03T21:06:49.401Z,73.75
2022-12-03T21:09:19.186Z,73.69
2022-12-03T21:11:48.255Z,73.71
2022-12-03T21:14:19.576Z,73.75
2022-12-03T21:19:40.575Z,73.64
2022-12-03T21:22:09.522Z,73.68
2022-12-03T21:24:40.128Z,73.68
2022-12-03T21:27:09.050Z,73.73
2022-12-03T21:29:39.214Z,73.69
2022-12-03T21:32:08.565Z,73.71
2022-12-03T21:34:38.282Z,73.69
2022-12-03T21:37:07.049Z,73.71
2022-12-03T21:39:36.270Z,73.67
2022-12-03T21:42:33.390Z,73.67
2022-12-03T21:44:55.145Z,73.77
2022-12-03T21:47:25.141Z,73.85
2022-12-03T21:49:55.066Z,73.84
2022-12-03T21:52:24.851Z,73.82
2022-12-03T21:54:55.052Z,73.98
2022-12-03T21:57:24.770Z,74.09
2022-12-03T21:59:55.226Z,74.08
2022-12-03T22:02:24.350Z,74.10
2022-12-03T22:04:53.653Z,74.12
2022-12-03T22:07:22.526Z,74.06
2022-12-03T22:09:51.148Z,74.12
2022-12-03T22:12:20.098Z,74.14
2022-12-03T22:14:48.971Z,74.15
2022-12-03T22:17:20.539Z,74.19
2022-12-03T22:19:51.188Z,74.28
2022-12-03T22:22:21.074Z,74.16
2022-12-03T22:24:50.081Z,74.25
2022-12-03T22:27:18.661Z,74.41
2022-12-03T22:29:47.065Z,74.61
2022-12-03T22:32:16.466Z,74.59
2022-12-03T22:34:45.045Z,74.52
2022-12-03T22:37:14.574Z,74.40
2022-12-03T22:39:44.181Z,74.41
2022-12-03T22:42:12.935Z,74.39
2022-12-03T22:44:42.227Z,74.37
2022-12-03T22:47:11.966Z,74.54
2022-12-03T22:49:40.561Z,74.73
2022-12-03T22:52:10.415Z,74.73
2022-12-03T22:54:39.852Z,74.72
2022-12-03T22:57:08.636Z,74.82
2022-12-03T22:59:38.346Z,74.94
2022-12-03T23:02:07.225Z,75.13
2022-12-03T23:04:35.814Z,75.07
2022-12-03T23:07:05.827Z,75.02
2022-12-03T23:09:34.516Z,74.94
2022-12-03T23:12:03.004Z,74.83
2022-12-03T23:14:32.095Z,74.94
2022-12-03T23:17:02.011Z,75.05
2022-12-03T23:19:31.000Z,75.08
2022-12-03T23:21:59.485Z,75.14
2022-12-03T23:24:29.021Z,75.22
2022-12-03T23:26:57.825Z,75.35
2022-12-03T23:29:26.883Z,75.21
2022-12-03T23:31:57.626Z,75.07
2022-12-03T23:34:26.117Z,74.98
2022-12-03T23:36:54.471Z,74.98
2022-12-03T23:39:22.908Z,74.96
2022-12-03T23:41:53.120Z,75.10
2022-12-03T23:44:21.745Z,75.19
2022-12-03T23:46:50.016Z,75.21
2022-12-03T23:49:18.511Z,75.22
2022-12-03T23:51:47.224Z,75.26
2022-12-03T23:54:15.676Z,75.40
2022-12-03T23:56:45.376Z,75.18
2022-12-03T23:59:13.863Z,75.24
